La rose des vents
Donnes mto: Semaine 12/02/07 - 18/02/07 (S 7)
Date Horaire Temp. E. Hum. E. P.atmo. Pluie Vent 1mn Direction Ensoleilleme Ev.Tr. Solaire P. de rose Temp au vent Rafales
12/02/2007 00:00 8,3 C 88 % 1010,3 hPa 0,0 l/m 3,3 km/h (1 Bft) NO 0,00 h 0,025 mm 0 W/m 6,5 C 8,1 C 5,1 km/h (1 Bft)
12/02/2007 01:00 9,1 C 82 % 1009,4 hPa 0,0 l/m 8,8 km/h (2 Bft) O 0,00 h 0,025 mm 0 W/m 6,2 C 8,0 C 13,0 km/h (3 Bft)
12/02/2007 02:00 9,5 C 74 % 1008,5 hPa 0,0 l/m 6,3 km/h (2 Bft) S 0,00 h 0,025 mm 0 W/m 5,0 C 9,1 C 9,1 km/h (2 Bft)
12/02/2007 03:00 9,5 C 73 % 1008,2 hPa 0,0 l/m 9,0 km/h (2 Bft) O 0,00 h 0,025 mm 0 W/m 4,8 C 8,6 C 13,1 km/h (3 Bft)
12/02/2007 04:00 11,2 C 62 % 1006,5 hPa 0,0 l/m 6,4 km/h (2 Bft) O-NO 0,00 h 0,051 mm 0 W/m 4,2 C 11,2 C 8,9 km/h (2 Bft)
12/02/2007 05:00 10,5 C 67 % 1006,3 hPa 0,0 l/m 6,2 km/h (2 Bft) S 0,00 h 0,051 mm 0 W/m 4,6 C 10,5 C 8,4 km/h (2 Bft)
12/02/2007 06:00 10,1 C 69 % 1005,8 hPa 0,0 l/m 1,3 km/h (1 Bft) NE 0,00 h 0,051 mm 0 W/m 4,8 C 10,1 C 2,3 km/h (1 Bft)
12/02/2007 07:00 9,8 C 68 % 1005,1 hPa 0,0 l/m 1,0 km/h (0 Bft) N-NE 0,02 h 0,025 mm 11 W/m 4,1 C 9,8 C 1,8 km/h (1 Bft)
12/02/2007 08:00 10,2 C 67 % 1004,5 hPa 0,0 l/m 0,6 km/h (0 Bft) O-NO 0,00 h 0,000 mm 62 W/m 4,3 C 10,2 C 1,3 km/h (1 Bft)
12/02/2007 09:00 10,8 C 68 % 1004,1 hPa 0,0 l/m 0,9 km/h (0 Bft) SO 0,00 h 0,025 mm 119 W/m 5,1 C 10,8 C 1,3 km/h (1 Bft)
12/02/2007 10:00 12,7 C 64 % 1003,8 hPa 0,0 l/m 0,5 km/h (0 Bft) SO 0,67 h 0,076 mm 257 W/m 6,1 C 12,7 C 1,1 km/h (1 Bft)
12/02/2007 11:00 13,9 C 60 % 1003,5 hPa 0,0 l/m 0,9 km/h (0 Bft) E 0,33 h 0,127 mm 249 W/m 6,3 C 13,9 C 2,0 km/h (1 Bft)
12/02/2007 12:00 13,8 C 64 % 1003,0 hPa 0,0 l/m 3,4 km/h (1 Bft) E 0,00 h 0,127 mm 163 W/m 7,1 C 13,8 C 5,1 km/h (1 Bft)
12/02/2007 13:00 13,3 C 71 % 1002,2 hPa 0,0 l/m 3,4 km/h (1 Bft) S-SE 0,00 h 0,102 mm 195 W/m 8,1 C 13,3 C 5,8 km/h (2 Bft)
12/02/2007 14:00 13,0 C 76 % 1001,4 hPa 0,0 l/m 3,3 km/h (1 Bft) S 0,00 h 0,127 mm 161 W/m 8,8 C 13,0 C 5,3 km/h (1 Bft)
12/02/2007 15:00 12,8 C 78 % 1000,4 hPa 0,2 l/m 3,9 km/h (1 Bft) O-SO 0,00 h 0,102 mm 50 W/m 9,0 C 12,8 C 5,8 km/h (2 Bft)
12/02/2007 16:00 11,3 C 88 % 999,8 hPa 0,4 l/m 3,0 km/h (1 Bft) E 0,00 h 0,051 mm 18 W/m 9,4 C 11,3 C 5,2 km/h (1 Bft)
12/02/2007 17:00 10,6 C 92 % 999,6 hPa 0,0 l/m 3,8 km/h (1 Bft) NE 0,05 h 0,025 mm 8 W/m 9,3 C 10,6 C 5,9 km/h (2 Bft)
12/02/2007 18:00 10,9 C 76 % 999,0 hPa 0,0 l/m 13,7 km/h (3 Bft) O-SO 0,00 h 0,000 mm 5 W/m 6,3 C 10,5 C 19,4 km/h (3 Bft)
12/02/2007 19:00 12,8 C 43 % 999,4 hPa 0,0 l/m 28,5 km/h (4 Bft) O-SO 0,00 h 0,051 mm 0 W/m 0,5 C 12,8 C 39,9 km/h (6 Bft)
12/02/2007 20:00 12,6 C 43 % 1000,7 hPa 0,0 l/m 26,6 km/h (4 Bft) O-SO 0,00 h 0,178 mm 0 W/m 0,4 C 12,6 C 37,5 km/h (5 Bft)
12/02/2007 21:00 11,6 C 50 % 1001,0 hPa 0,0 l/m 25,8 km/h (4 Bft) SO 0,00 h 0,178 mm 0 W/m 1,3 C 11,6 C 34,6 km/h (5 Bft)
12/02/2007 22:00 11,9 C 40 % 1001,1 hPa 0,0 l/m 26,1 km/h (4 Bft) O-NO 0,00 h 0,152 mm 0 W/m -1,3 C 11,9 C 38,0 km/h (5 Bft)
12/02/2007 23:00 11,7 C 40 % 1001,7 hPa 0,0 l/m 21,8 km/h (4 Bft) O 0,00 h 0,178 mm 0 W/m -1,6 C 11,7 C 30,7 km/h (5 Bft)
13/02/2007 00:00 11,3 C 42 % 1002,2 hPa 0,0 l/m 31,0 km/h (5 Bft) O 0,00 h 0,152 mm 0 W/m -1,2 C 11,3 C 44,3 km/h (6 Bft)
13/02/2007 01:00 11,1 C 41 % 1002,7 hPa 0,0 l/m 34,8 km/h (5 Bft) O 0,00 h 0,203 mm 0 W/m -1,7 C 11,1 C 49,1 km/h (6 Bft)
13/02/2007 02:00 11,2 C 35 % 1001,6 hPa 0,2 l/m 35,9 km/h (5 Bft) O-NO 0,00 h 0,203 mm 0 W/m -3,8 C 11,2 C 53,5 km/h (7 Bft)
13/02/2007 03:00 11,9 C 30 % 1000,5 hPa 0,0 l/m 38,4 km/h (5 Bft) NO 0,00 h 0,229 mm 0 W/m -5,2 C 11,9 C 60,4 km/h (7 Bft)
13/02/2007 04:00 12,3 C 28 % 1001,5 hPa 0,0 l/m 20,0 km/h (4 Bft) N 0,00 h 0,279 mm 0 W/m -5,8 C 12,3 C 37,4 km/h (5 Bft)
13/02/2007 05:00 12,7 C 28 % 1002,1 hPa 0,0 l/m 18,7 km/h (3 Bft) N 0,00 h 0,178 mm 0 W/m -5,2 C 12,7 C 33,2 km/h (5 Bft)
13/02/2007 06:00 12,8 C 28 % 1002,3 hPa 0,0 l/m 30,0 km/h (5 Bft) NO 0,00 h 0,178 mm 0 W/m -5,0 C 12,8 C 48,7 km/h (6 Bft)
13/02/2007 07:00 11,6 C 33 % 1004,9 hPa 0,0 l/m 16,1 km/h (3 Bft) S-SO 0,27 h 0,229 mm 20 W/m -4,0 C 11,6 C 22,3 km/h (4 Bft)
13/02/2007 08:00 11,7 C 36 % 1006,4 hPa 0,0 l/m 15,8 km/h (3 Bft) SO 1,00 h 0,127 mm 125 W/m -2,8 C 11,7 C 21,2 km/h (4 Bft)
13/02/2007 09:00 13,1 C 35 % 1007,1 hPa 0,0 l/m 18,2 km/h (3 Bft) O-NO 1,00 h 0,178 mm 283 W/m -2,1 C 13,1 C 25,2 km/h (4 Bft)
13/02/2007 10:00 14,5 C 31 % 1007,1 hPa 0,0 l/m 25,0 km/h (4 Bft) O-NO 1,00 h 0,279 mm 423 W/m -2,3 C 14,5 C 33,6 km/h (5 Bft)
13/02/2007 11:00 16,1 C 29 % 1007,9 hPa 0,0 l/m 18,9 km/h (3 Bft) NO 1,00 h 0,432 mm 517 W/m -2,2 C 16,1 C 28,3 km/h (4 Bft)
13/02/2007 12:00 17,0 C 26 % 1008,1 hPa 0,0 l/m 19,5 km/h (3 Bft) O-NO 1,00 h 0,457 mm 549 W/m -2,5 C 17,0 C 27,8 km/h (4 Bft)
13/02/2007 13:00 17,4 C 26 % 1008,0 hPa 0,0 l/m 10,2 km/h (2 Bft) O-NO 0,77 h 0,483 mm 446 W/m -2,5 C 17,4 C 15,6 km/h (3 Bft)
13/02/2007 14:00 18,8 C 22 % 1007,9 hPa 0,0 l/m 5,4 km/h (1 Bft) NO 0,98 h 0,356 mm 517 W/m -3,4 C 18,8 C 8,8 km/h (2 Bft)
13/02/2007 15:00 18,5 C 25 % 1008,1 hPa 0,0 l/m 11,0 km/h (2 Bft) SO 0,98 h 0,356 mm 333 W/m -2,1 C 18,5 C 15,3 km/h (3 Bft)
13/02/2007 16:00 18,0 C 26 % 1008,4 hPa 0,0 l/m 9,4 km/h (2 Bft) O-SO 0,98 h 0,305 mm 194 W/m -1,7 C 18,0 C 12,9 km/h (3 Bft)
13/02/2007 17:00 16,3 C 29 % 1008,7 hPa 0,0 l/m 0,6 km/h (0 Bft) SE 0,08 h 0,203 mm 27 W/m -1,9 C 16,3 C 1,2 km/h (1 Bft)
13/02/2007 18:00 13,9 C 33 % 1009,3 hPa 0,0 l/m 3,7 km/h (1 Bft) O-NO 0,00 h 0,025 mm 0 W/m -2,3 C 13,9 C 5,7 km/h (1 Bft)
13/02/2007 19:00 12,3 C 34 % 1010,0 hPa 0,0 l/m 5,5 km/h (1 Bft) O-NO 0,00 h 0,051 mm 0 W/m -3,0 C 12,3 C 8,1 km/h (2 Bft)
13/02/2007 20:00 11,2 C 32 % 1010,5 hPa 0,0 l/m 4,0 km/h (1 Bft) O 0,00 h 0,076 mm 0 W/m -4,8 C 11,2 C 6,0 km/h (2 Bft)
13/02/2007 21:00 10,2 C 37 % 1010,8 hPa 0,0 l/m 2,1 km/h (1 Bft) N 0,00 h 0,076 mm 0 W/m -3,8 C 10,2 C 3,5 km/h (1 Bft)
13/02/2007 22:00 10,6 C 34 % 1011,0 hPa 0,0 l/m 7,1 km/h (2 Bft) O 0,00 h 0,051 mm 0 W/m -4,7 C 10,6 C 9,4 km/h (2 Bft)
13/02/2007 23:00 9,4 C 36 % 1011,2 hPa 0,0 l/m 3,0 km/h (1 Bft) O-NO 0,00 h 0,076 mm 0 W/m -4,8 C 9,3 C 4,4 km/h (1 Bft)
14/02/2007 00:00 9,2 C 35 % 1011,2 hPa 0,0 l/m 4,7 km/h (1 Bft) O 0,00 h 0,051 mm 0 W/m -5,5 C 8,9 C 6,0 km/h (2 Bft)
14/02/2007 01:00 9,4 C 33 % 1011,2 hPa 0,0 l/m 3,2 km/h (1 Bft) N-NO 0,00 h 0,076 mm 0 W/m -5,9 C 9,2 C 4,3 km/h (1 Bft)
14/02/2007 02:00 8,5 C 38 % 1011,1 hPa 0,0 l/m 2,6 km/h (1 Bft) NO 0,00 h 0,051 mm 0 W/m -5,2 C 8,3 C 4,4 km/h (1 Bft)
14/02/2007 03:00 8,3 C 36 % 1010,7 hPa 0,0 l/m 2,2 km/h (1 Bft) O 0,00 h 0,051 mm 0 W/m -5,8 C 8,1 C 3,5 km/h (1 Bft)
14/02/2007 04:00 7,4 C 40 % 1010,7 hPa 0,0 l/m 2,8 km/h (1 Bft) SE 0,00 h 0,051 mm 0 W/m -5,2 C 7,3 C 4,4 km/h (1 Bft)
14/02/2007 05:00 7,4 C 46 % 1011,1 hPa 0,0 l/m 4,1 km/h (1 Bft) N 0,00 h 0,051 mm 0 W/m -3,6 C 6,9 C 6,6 km/h (2 Bft)
14/02/2007 06:00 8,0 C 51 % 1011,7 hPa 0,0 l/m 2,1 km/h (1 Bft) N-NO 0,00 h 0,051 mm 0 W/m -1,5 C 7,9 C 4,2 km/h (1 Bft)
14/02/2007 07:00 7,6 C 59 % 1012,2 hPa 0,0 l/m 2,0 km/h (1 Bft) N-NO 0,27 h 0,051 mm 16 W/m 0,1 C 7,6 C 4,1 km/h (1 Bft)
14/02/2007 08:00 8,5 C 66 % 1012,6 hPa 0,0 l/m 2,5 km/h (1 Bft) N 0,15 h 0,025 mm 63 W/m 2,4 C 8,4 C 5,0 km/h (1 Bft)
14/02/2007 09:00 10,4 C 75 % 1013,0 hPa 0,0 l/m 3,3 km/h (1 Bft) NE 0,33 h 0,051 mm 148 W/m 6,1 C 10,4 C 5,7 km/h (1 Bft)
14/02/2007 10:00 12,4 C 71 % 1013,4 hPa 0,0 l/m 4,9 km/h (1 Bft) E-NE 0,43 h 0,076 mm 254 W/m 7,3 C 12,4 C 7,8 km/h (2 Bft)
14/02/2007 11:00 12,6 C 68 % 1013,7 hPa 0,0 l/m 8,1 km/h (2 Bft) NE 0,62 h 0,152 mm 355 W/m 6,7 C 12,6 C 12,1 km/h (2 Bft)
14/02/2007 12:00 12,7 C 65 % 1013,5 hPa 0,0 l/m 6,6 km/h (2 Bft) E 0,15 h 0,203 mm 242 W/m 6,2 C 12,7 C 10,1 km/h (2 Bft)
14/02/2007 13:00 13,2 C 60 % 1012,8 hPa 0,0 l/m 10,0 km/h (2 Bft) E-NE 0,20 h 0,152 mm 285 W/m 5,5 C 13,2 C 14,5 km/h (3 Bft)
14/02/2007 14:00 12,4 C 67 % 1012,4 hPa 0,0 l/m 6,7 km/h (2 Bft) E 0,00 h 0,178 mm 111 W/m 6,4 C 12,4 C 9,3 km/h (2 Bft)
14/02/2007 15:00 11,8 C 71 % 1012,2 hPa 0,0 l/m 5,7 km/h (1 Bft) E-NE 0,00 h 0,076 mm 63 W/m 6,8 C 11,8 C 7,7 km/h (2 Bft)
14/02/2007 16:00 11,5 C 74 % 1011,3 hPa 0,0 l/m 5,0 km/h (1 Bft) N-NE 0,00 h 0,051 mm 32 W/m 6,9 C 11,5 C 7,8 km/h (2 Bft)
14/02/2007 17:00 11,1 C 74 % 1010,6 hPa 0,0 l/m 4,4 km/h (1 Bft) E-NE 0,00 h 0,025 mm 7 W/m 6,7 C 11,1 C 6,2 km/h (2 Bft)
14/02/2007 18:00 10,8 C 76 % 1010,6 hPa 0,0 l/m 2,1 km/h (1 Bft) N 0,00 h 0,025 mm 0 W/m 6,8 C 10,8 C 4,0 km/h (1 Bft)
14/02/2007 19:00 10,6 C 78 % 1009,7 hPa 0,0 l/m 6,7 km/h (2 Bft) NE 0,00 h 0,000 mm 0 W/m 6,9 C 10,6 C 9,4 km/h (2 Bft)
14/02/2007 20:00 10,4 C 78 % 1009,0 hPa 0,0 l/m 4,7 km/h (1 Bft) NE 0,00 h 0,025 mm 0 W/m 6,8 C 10,4 C 6,9 km/h (2 Bft)
14/02/2007 21:00 10,2 C 82 % 1008,5 hPa 0,0 l/m 8,4 km/h (2 Bft) E-NE 0,00 h 0,025 mm 0 W/m 7,2 C 9,8 C 11,7 km/h (2 Bft)
14/02/2007 22:00 9,5 C 88 % 1008,8 hPa 2,6 l/m 6,6 km/h (2 Bft) NE 0,00 h 0,025 mm 0 W/m 7,7 C 8,8 C 9,6 km/h (2 Bft)
14/02/2007 23:00 9,3 C 92 % 1008,6 hPa 3,6 l/m 0,4 km/h (0 Bft) S 0,00 h 0,025 mm 0 W/m 8,0 C 9,3 C 1,1 km/h (1 Bft)
15/02/2007 00:00 8,9 C 93 % 1007,9 hPa 0,2 l/m 1,4 km/h (1 Bft) N-NO 0,00 h 0,000 mm 0 W/m 7,9 C 8,9 C 2,7 km/h (1 Bft)
15/02/2007 01:00 9,0 C 95 % 1007,6 hPa 0,0 l/m 6,2 km/h (2 Bft) O 0,00 h 0,000 mm 0 W/m 8,2 C 8,3 C 8,1 km/h (2 Bft)
15/02/2007 02:00 9,2 C 96 % 1007,8 hPa 0,0 l/m 6,7 km/h (2 Bft) O 0,00 h 0,000 mm 0 W/m 8,6 C 8,4 C 10,9 km/h (2 Bft)
15/02/2007 03:00 9,2 C 96 % 1008,1 hPa 0,2 l/m 4,2 km/h (1 Bft) O-SO 0,00 h 0,000 mm 0 W/m 8,6 C 8,9 C 6,4 km/h (2 Bft)
15/02/2007 04:00 9,2 C 97 % 1008,2 hPa 0,0 l/m 4,4 km/h (1 Bft) NO 0,00 h 0,000 mm 0 W/m 8,7 C 8,9 C 6,3 km/h (2 Bft)
15/02/2007 05:00 9,1 C 97 % 1008,2 hPa 0,0 l/m 9,6 km/h (2 Bft) O 0,00 h 0,000 mm 0 W/m 8,6 C 7,6 C 13,8 km/h (3 Bft)
15/02/2007 06:00 8,8 C 97 % 1008,3 hPa 0,0 l/m 12,2 km/h (2 Bft) O 0,00 h 0,000 mm 0 W/m 8,3 C 6,8 C 17,4 km/h (3 Bft)
15/02/2007 07:00 7,8 C 96 % 1009,1 hPa 0,0 l/m 8,1 km/h (2 Bft) NO 0,02 h 0,025 mm 11 W/m 7,2 C 6,5 C 10,7 km/h (2 Bft)
15/02/2007 08:00 7,6 C 95 % 1010,1 hPa 0,0 l/m 4,9 km/h (1 Bft) NO 0,02 h 0,000 mm 43 W/m 6,9 C 7,0 C 7,2 km/h (2 Bft)
15/02/2007 09:00 10,2 C 86 % 1011,2 hPa 0,0 l/m 0,7 km/h (0 Bft) O-NO 0,72 h 0,025 mm 238 W/m 7,9 C 10,2 C 1,3 km/h (1 Bft)
15/02/2007 10:00 13,5 C 75 % 1012,0 hPa 0,0 l/m 2,0 km/h (1 Bft) E 1,00 h 0,102 mm 416 W/m 9,2 C 13,5 C 3,7 km/h (1 Bft)
15/02/2007 11:00 15,2 C 71 % 1012,7 hPa 0,0 l/m 4,0 km/h (1 Bft) S 1,00 h 0,229 mm 510 W/m 9,8 C 15,2 C 7,0 km/h (2 Bft)
15/02/2007 12:00 15,9 C 62 % 1013,2 hPa 0,0 l/m 10,2 km/h (2 Bft) SO 1,00 h 0,279 mm 579 W/m 8,6 C 15,9 C 14,6 km/h (3 Bft)
15/02/2007 13:00 16,9 C 56 % 1013,4 hPa 0,0 l/m 10,9 km/h (2 Bft) O-SO 0,77 h 0,356 mm 482 W/m 7,9 C 16,9 C 15,0 km/h (3 Bft)
15/02/2007 14:00 17,0 C 56 % 1013,5 hPa 0,0 l/m 12,0 km/h (2 Bft) O-SO 1,00 h 0,330 mm 468 W/m 8,2 C 17,0 C 16,9 km/h (3 Bft)
15/02/2007 15:00 17,8 C 58 % 1013,5 hPa 0,0 l/m 5,0 km/h (1 Bft) SO 1,00 h 0,330 mm 349 W/m 9,4 C 17,8 C 7,6 km/h (2 Bft)
15/02/2007 16:00 17,3 C 61 % 1014,0 hPa 0,0 l/m 3,8 km/h (1 Bft) SO 1,00 h 0,229 mm 198 W/m 9,7 C 17,3 C 6,0 km/h (2 Bft)
15/02/2007 17:00 14,7 C 74 % 1014,9 hPa 0,0 l/m 1,2 km/h (1 Bft) N-NE 0,58 h 0,127 mm 49 W/m 10,1 C 14,7 C 3,4 km/h (1 Bft)
15/02/2007 18:00 12,1 C 83 % 1015,9 hPa 0,0 l/m 1,2 km/h (1 Bft) N-NE 0,00 h 0,025 mm 5 W/m 9,3 C 12,1 C 2,8 km/h (1 Bft)
15/02/2007 19:00 11,8 C 82 % 1016,7 hPa 0,0 l/m 0,5 km/h (0 Bft) N 0,00 h 0,000 mm 0 W/m 8,8 C 11,8 C 1,5 km/h (1 Bft)
15/02/2007 20:00 11,4 C 81 % 1017,3 hPa 0,0 l/m 2,0 km/h (1 Bft) NO 0,00 h 0,025 mm 0 W/m 8,2 C 11,4 C 3,7 km/h (1 Bft)
15/02/2007 21:00 11,7 C 77 % 1018,0 hPa 0,0 l/m 5,8 km/h (2 Bft) O-NO 0,00 h 0,025 mm 0 W/m 7,8 C 11,7 C 8,0 km/h (2 Bft)
15/02/2007 22:00 11,3 C 71 % 1018,2 hPa 0,0 l/m 6,4 km/h (2 Bft) O-NO 0,00 h 0,025 mm 0 W/m 6,3 C 11,3 C 9,5 km/h (2 Bft)
15/02/2007 23:00 11,4 C 63 % 1018,2 hPa 0,0 l/m 5,1 km/h (1 Bft) O 0,00 h 0,051 mm 0 W/m 4,6 C 11,4 C 8,6 km/h (2 Bft)
16/02/2007 00:00 12,0 C 53 % 1018,3 hPa 0,0 l/m 5,3 km/h (1 Bft) NO 0,00 h 0,051 mm 0 W/m 2,8 C 12,0 C 8,3 km/h (2 Bft)
16/02/2007 01:00 11,3 C 54 % 1018,4 hPa 0,0 l/m 3,4 km/h (1 Bft) NO 0,00 h 0,051 mm 0 W/m 2,2 C 11,3 C 6,4 km/h (2 Bft)
16/02/2007 02:00 10,5 C 56 % 1018,3 hPa 0,0 l/m 3,4 km/h (1 Bft) O-NO 0,00 h 0,051 mm 0 W/m 2,0 C 10,5 C 5,0 km/h (1 Bft)
16/02/2007 03:00 11,0 C 54 % 1017,6 hPa 0,0 l/m 5,4 km/h (1 Bft) O-NO 0,00 h 0,051 mm 0 W/m 1,9 C 11,0 C 7,3 km/h (2 Bft)
16/02/2007 04:00 10,9 C 52 % 1017,3 hPa 0,0 l/m 5,8 km/h (2 Bft) O-NO 0,00 h 0,051 mm 0 W/m 1,3 C 10,9 C 8,1 km/h (2 Bft)
16/02/2007 05:00 11,0 C 48 % 1017,4 hPa 0,0 l/m 2,9 km/h (1 Bft) O-NO 0,00 h 0,051 mm 0 W/m 0,2 C 11,0 C 4,3 km/h (1 Bft)
16/02/2007 06:00 10,8 C 46 % 1017,0 hPa 0,0 l/m 4,4 km/h (1 Bft) N-NO 0,00 h 0,051 mm 0 W/m -0,4 C 10,8 C 6,7 km/h (2 Bft)
16/02/2007 07:00 11,1 C 45 % 1017,0 hPa 0,0 l/m 2,4 km/h (1 Bft) NO 0,33 h 0,051 mm 23 W/m -0,3 C 11,1 C 4,2 km/h (1 Bft)
16/02/2007 08:00 11,3 C 50 % 1017,6 hPa 0,0 l/m 2,3 km/h (1 Bft) SE 1,00 h 0,025 mm 138 W/m 1,1 C 11,3 C 4,2 km/h (1 Bft)
16/02/2007 09:00 11,3 C 51 % 1018,3 hPa 0,0 l/m 5,8 km/h (1 Bft) NE 1,00 h 0,076 mm 292 W/m 1,5 C 11,3 C 8,7 km/h (2 Bft)
16/02/2007 10:00 13,4 C 63 % 1018,2 hPa 0,0 l/m 6,0 km/h (2 Bft) NE 1,00 h 0,178 mm 424 W/m 6,5 C 13,4 C 9,1 km/h (2 Bft)
16/02/2007 11:00 14,7 C 71 % 1018,2 hPa 0,0 l/m 5,8 km/h (2 Bft) E-NE 1,00 h 0,254 mm 517 W/m 9,5 C 14,7 C 9,1 km/h (2 Bft)
16/02/2007 12:00 15,0 C 75 % 1017,8 hPa 0,0 l/m 5,5 km/h (1 Bft) E 1,00 h 0,279 mm 563 W/m 10,6 C 15,0 C 9,3 km/h (2 Bft)
16/02/2007 13:00 14,8 C 78 % 1017,6 hPa 0,0 l/m 6,2 km/h (2 Bft) E 1,00 h 0,305 mm 559 W/m 11,0 C 14,8 C 10,9 km/h (2 Bft)
16/02/2007 14:00 15,0 C 78 % 1017,2 hPa 0,0 l/m 5,9 km/h (2 Bft) E 1,00 h 0,305 mm 536 W/m 11,1 C 15,0 C 11,1 km/h (2 Bft)
16/02/2007 15:00 13,4 C 84 % 1017,0 hPa 0,0 l/m 5,0 km/h (1 Bft) E 0,15 h 0,279 mm 148 W/m 10,7 C 13,4 C 9,5 km/h (2 Bft)
16/02/2007 16:00 12,2 C 88 % 1017,2 hPa 0,0 l/m 2,1 km/h (1 Bft) SE 0,22 h 0,076 mm 83 W/m 10,3 C 12,2 C 4,4 km/h (1 Bft)
16/02/2007 17:00 12,1 C 88 % 1017,2 hPa 0,0 l/m 0,5 km/h (0 Bft) SE 0,52 h 0,051 mm 51 W/m 10,2 C 12,1 C 1,3 km/h (1 Bft)
16/02/2007 18:00 10,4 C 92 % 1017,7 hPa 0,0 l/m 0,6 km/h (0 Bft) SE 0,00 h 0,025 mm 5 W/m 9,1 C 10,4 C 1,5 km/h (1 Bft)
16/02/2007 19:00 9,9 C 95 % 1018,0 hPa 0,0 l/m 2,3 km/h (1 Bft) E-NE 0,00 h 0,000 mm 0 W/m 9,1 C 9,9 C 3,7 km/h (1 Bft)
16/02/2007 20:00 9,3 C 95 % 1018,5 hPa 0,0 l/m 1,9 km/h (1 Bft) E-NE 0,00 h 0,000 mm 0 W/m 8,5 C 9,3 C 3,2 km/h (1 Bft)
16/02/2007 21:00 9,1 C 95 % 1019,0 hPa 0,0 l/m 3,1 km/h (1 Bft) NE 0,00 h 0,000 mm 0 W/m 8,4 C 9,0 C 5,2 km/h (1 Bft)
16/02/2007 22:00 9,6 C 95 % 1019,3 hPa 0,0 l/m 1,4 km/h (1 Bft) N-NE 0,00 h 0,000 mm 0 W/m 8,9 C 9,6 C 3,2 km/h (1 Bft)
16/02/2007 23:00 9,4 C 95 % 1019,3 hPa 0,0 l/m 1,8 km/h (1 Bft) N 0,00 h 0,000 mm 0 W/m 8,7 C 9,4 C 4,0 km/h (1 Bft)
17/02/2007 00:00 8,7 C 95 % 1019,3 hPa 0,0 l/m 4,7 km/h (1 Bft) NO 0,00 h 0,000 mm 0 W/m 7,9 C 8,2 C 7,5 km/h (2 Bft)
17/02/2007 01:00 8,5 C 93 % 1019,5 hPa 0,0 l/m 1,8 km/h (1 Bft) NO 0,00 h 0,000 mm 0 W/m 7,5 C 8,4 C 2,6 km/h (1 Bft)
17/02/2007 02:00 7,7 C 91 % 1019,4 hPa 0,0 l/m 2,2 km/h (1 Bft) NO 0,00 h 0,000 mm 0 W/m 6,3 C 7,6 C 3,4 km/h (1 Bft)
17/02/2007 03:00 8,1 C 88 % 1019,2 hPa 0,0 l/m 3,6 km/h (1 Bft) N 0,00 h 0,000 mm 0 W/m 6,3 C 7,8 C 5,9 km/h (2 Bft)
17/02/2007 04:00 8,6 C 84 % 1018,8 hPa 0,0 l/m 5,6 km/h (1 Bft) N-NE 0,00 h 0,025 mm 0 W/m 5,9 C 7,9 C 8,7 km/h (2 Bft)
17/02/2007 05:00 8,2 C 83 % 1018,9 hPa 0,0 l/m 4,1 km/h (1 Bft) N 0,00 h 0,025 mm 0 W/m 5,4 C 7,8 C 7,4 km/h (2 Bft)
17/02/2007 06:00 8,3 C 76 % 1018,6 hPa 0,0 l/m 6,2 km/h (2 Bft) N-NE 0,00 h 0,025 mm 0 W/m 4,3 C 7,4 C 10,0 km/h (2 Bft)
17/02/2007 07:00 8,3 C 73 % 1018,5 hPa 0,0 l/m 5,0 km/h (1 Bft) NE 0,03 h 0,025 mm 13 W/m 3,8 C 7,8 C 7,6 km/h (2 Bft)
17/02/2007 08:00 9,0 C 70 % 1018,9 hPa 0,0 l/m 8,6 km/h (2 Bft) N-NE 0,00 h 0,025 mm 67 W/m 3,8 C 7,8 C 12,9 km/h (3 Bft)
17/02/2007 09:00 9,8 C 69 % 1019,0 hPa 0,0 l/m 9,4 km/h (2 Bft) NE 0,00 h 0,076 mm 125 W/m 4,3 C 8,7 C 14,3 km/h (3 Bft)
17/02/2007 10:00 10,9 C 71 % 1019,5 hPa 0,0 l/m 5,9 km/h (2 Bft) NE 0,43 h 0,102 mm 243 W/m 5,9 C 10,9 C 8,7 km/h (2 Bft)
17/02/2007 11:00 12,0 C 70 % 1019,7 hPa 0,0 l/m 7,0 km/h (2 Bft) NE 0,78 h 0,127 mm 318 W/m 6,6 C 12,0 C 10,1 km/h (2 Bft)
17/02/2007 12:00 12,5 C 67 % 1019,1 hPa 0,0 l/m 15,0 km/h (3 Bft) E-NE 0,57 h 0,178 mm 359 W/m 6,5 C 12,5 C 21,3 km/h (4 Bft)
17/02/2007 13:00 12,2 C 69 % 1018,1 hPa 0,0 l/m 20,2 km/h (4 Bft) E-NE 0,00 h 0,229 mm 238 W/m 6,6 C 12,2 C 27,2 km/h (4 Bft)
17/02/2007 14:00 12,1 C 67 % 1017,1 hPa 0,0 l/m 22,9 km/h (4 Bft) E-NE 0,00 h 0,203 mm 205 W/m 6,2 C 12,1 C 31,1 km/h (5 Bft)
17/02/2007 15:00 11,8 C 66 % 1016,8 hPa 0,0 l/m 21,7 km/h (4 Bft) E-NE 0,00 h 0,203 mm 157 W/m 5,7 C 11,8 C 29,0 km/h (5 Bft)
17/02/2007 16:00 12,2 C 63 % 1016,1 hPa 0,0 l/m 17,5 km/h (3 Bft) E-NE 0,40 h 0,178 mm 134 W/m 5,4 C 12,2 C 23,9 km/h (4 Bft)
17/02/2007 17:00 11,7 C 65 % 1016,0 hPa 0,0 l/m 5,3 km/h (1 Bft) E-NE 0,03 h 0,152 mm 35 W/m 5,3 C 11,7 C 8,1 km/h (2 Bft)
17/02/2007 18:00 10,6 C 67 % 1016,0 hPa 0,0 l/m 5,3 km/h (1 Bft) O-NO 0,00 h 0,051 mm 0 W/m 4,8 C 10,6 C 7,2 km/h (2 Bft)
17/02/2007 19:00 9,6 C 72 % 1016,2 hPa 0,0 l/m 1,5 km/h (1 Bft) SE 0,00 h 0,025 mm 0 W/m 4,8 C 9,6 C 2,9 km/h (1 Bft)
17/02/2007 20:00 9,5 C 72 % 1016,1 hPa 0,0 l/m 3,4 km/h (1 Bft) N 0,00 h 0,025 mm 0 W/m 4,6 C 9,2 C 5,7 km/h (1 Bft)
17/02/2007 21:00 9,8 C 70 % 1016,3 hPa 0,0 l/m 7,8 km/h (2 Bft) NE 0,00 h 0,025 mm 0 W/m 4,6 C 8,8 C 11,6 km/h (2 Bft)
17/02/2007 22:00 10,5 C 63 % 1016,7 hPa 0,0 l/m 22,8 km/h (4 Bft) E-NE 0,00 h 0,051 mm 0 W/m 3,8 C 10,3 C 31,4 km/h (5 Bft)
17/02/2007 23:00 11,2 C 58 % 1017,1 hPa 0,0 l/m 28,3 km/h (4 Bft) E-NE 0,00 h 0,102 mm 0 W/m 3,1 C 11,2 C 38,4 km/h (5 Bft)
18/02/2007 00:00 11,1 C 56 % 1016,8 hPa 0,0 l/m 28,6 km/h (4 Bft) E-NE 0,00 h 0,127 mm 0 W/m 2,6 C 11,1 C 40,3 km/h (6 Bft)
18/02/2007 01:00 11,0 C 52 % 1016,0 hPa 0,0 l/m 35,3 km/h (5 Bft) E-NE 0,00 h 0,152 mm 0 W/m 1,7 C 11,0 C 48,2 km/h (6 Bft)
18/02/2007 02:00 10,9 C 59 % 1015,7 hPa 0,0 l/m 30,0 km/h (5 Bft) E-NE 0,00 h 0,178 mm 0 W/m 3,1 C 10,9 C 41,4 km/h (6 Bft)
18/02/2007 03:00 10,8 C 56 % 1015,6 hPa 0,0 l/m 32,8 km/h (5 Bft) E-NE 0,00 h 0,127 mm 0 W/m 2,4 C 10,8 C 44,3 km/h (6 Bft)
18/02/2007 04:00 10,5 C 59 % 1014,7 hPa 0,0 l/m 26,8 km/h (4 Bft) E-NE 0,00 h 0,152 mm 0 W/m 2,8 C 10,5 C 36,5 km/h (5 Bft)
18/02/2007 05:00 10,3 C 58 % 1014,6 hPa 0,0 l/m 16,6 km/h (3 Bft) E-NE 0,00 h 0,127 mm 0 W/m 2,4 C 10,3 C 23,3 km/h (4 Bft)
18/02/2007 06:00 10,0 C 60 % 1014,6 hPa 0,0 l/m 22,0 km/h (4 Bft) E-NE 0,00 h 0,076 mm 0 W/m 2,6 C 7,3 C 29,8 km/h (5 Bft)
18/02/2007 07:00 9,8 C 62 % 1015,0 hPa 0,0 l/m 23,7 km/h (4 Bft) E-NE 0,00 h 0,102 mm 5 W/m 2,9 C 6,9 C 31,8 km/h (5 Bft)
18/02/2007 08:00 9,7 C 61 % 1015,4 hPa 0,0 l/m 13,9 km/h (3 Bft) NE 0,00 h 0,102 mm 22 W/m 2,5 C 7,7 C 20,3 km/h (4 Bft)
18/02/2007 09:00 9,4 C 66 % 1015,4 hPa 0,0 l/m 13,7 km/h (3 Bft) NE 0,00 h 0,076 mm 96 W/m 3,3 C 7,4 C 19,7 km/h (3 Bft)
18/02/2007 10:00 9,2 C 72 % 1015,5 hPa 0,2 l/m 13,1 km/h (3 Bft) E-NE 0,00 h 0,102 mm 90 W/m 4,4 C 7,2 C 18,3 km/h (3 Bft)
18/02/2007 11:00 8,7 C 81 % 1015,4 hPa 0,2 l/m 8,8 km/h (2 Bft) NE 0,00 h 0,076 mm 111 W/m 5,6 C 7,3 C 13,0 km/h (3 Bft)
18/02/2007 12:00 9,5 C 82 % 1015,1 hPa 0,0 l/m 6,0 km/h (2 Bft) NE 0,00 h 0,076 mm 196 W/m 6,7 C 8,9 C 8,5 km/h (2 Bft)
18/02/2007 13:00 9,5 C 80 % 1014,7 hPa 0,0 l/m 4,1 km/h (1 Bft) NE 0,00 h 0,102 mm 97 W/m 6,3 C 9,3 C 6,4 km/h (2 Bft)
18/02/2007 14:00 9,7 C 80 % 1014,6 hPa 0,0 l/m 1,4 km/h (1 Bft) E-NE 0,00 h 0,051 mm 86 W/m 6,3 C 9,7 C 3,1 km/h (1 Bft)
18/02/2007 15:00 9,5 C 81 % 1014,7 hPa 0,4 l/m 1,4 km/h (1 Bft) E-NE 0,00 h 0,051 mm 66 W/m 6,4 C 9,4 C 2,6 km/h (1 Bft)
18/02/2007 16:00 8,6 C 84 % 1014,8 hPa 0,2 l/m 3,9 km/h (1 Bft) NE 0,00 h 0,025 mm 42 W/m 6,1 C 8,3 C 6,5 km/h (2 Bft)
18/02/2007 17:00 8,2 C 87 % 1014,7 hPa 0,2 l/m 2,2 km/h (1 Bft) N-NO 0,00 h 0,025 mm 12 W/m 6,2 C 8,2 C 4,2 km/h (1 Bft)
18/02/2007 18:00 8,0 C 87 % 1015,1 hPa 0,0 l/m 2,4 km/h (1 Bft) O-NO 0,00 h 0,000 mm 0 W/m 5,9 C 7,8 C 4,1 km/h (1 Bft)
18/02/2007 19:00 8,0 C 83 % 1015,3 hPa 0,2 l/m 2,9 km/h (1 Bft) O-NO 0,00 h 0,000 mm 0 W/m 5,2 C 7,8 C 4,7 km/h (1 Bft)
18/02/2007 20:00 7,8 C 82 % 1015,5 hPa 0,0 l/m 3,0 km/h (1 Bft) O 0,00 h 0,025 mm 0 W/m 5,0 C 7,6 C 4,9 km/h (1 Bft)
18/02/2007 21:00 7,6 C 83 % 1015,6 hPa 0,0 l/m 5,5 km/h (1 Bft) O-NO 0,00 h 0,025 mm 0 W/m 4,9 C 6,9 C 7,8 km/h (2 Bft)
18/02/2007 22:00 7,5 C 81 % 1015,6 hPa 0,0 l/m 3,7 km/h (1 Bft) O-NO 0,00 h 0,025 mm 0 W/m 4,4 C 7,2 C 6,0 km/h (2 Bft)
18/02/2007 23:00 7,2 C 81 % 1015,4 hPa 0,0 l/m 3,9 km/h (1 Bft) NO 0,00 h 0,025 mm 0 W/m 4,1 C 6,9 C 6,0 km/h (2 Bft)
Min-Date _ 14/02/07 13/02/07 12/02/07 - 12/02/07 - - - - 14/02/07 14/02/07 12/02/07
_ Min-Heure 05:03 14:22 18:00 - 00:05 - - - - 00:56 05:04 00:05
Minimum _ 6,1 C 20 % 998,2 hPa - 0,0 km/h (0 Bft) - - - - -6,7 C 4,9 C 0,0 km/h (0 Bft)
Max-Date _ 13/02/07 15/02/07 17/02/07 14/02/07 13/02/07 - 12/02/07 13/02/07 13/02/07 16/02/07 13/02/07 13/02/07
_ Max-Heure 14:42 03:55 11:15 23:01 03:10 - 07:45 13:00 14:20 14:14 14:42 02:54
Maximum _ 19,7 C 97 % 1019,8 hPa 3,6 l/m 54,7 km/h
NO (7 Bft)
- 0,02 h 0,483 mm 686 W/m 11,8 C 19,7 C 83,7 km/h
O-NO (9 Bft)
Moyenne _ 11,1 C 65 % 1012,1 hPa #8,8 l/m 8,7 km/h (2 Bft) E-NE #30:51 h #16,629 mm 196 W/m 4,1 C 10,9 C 12,8 km/h (3 Bft)
Roquefort les pins